createdAt,value
2019-03-21T00:01:38.671Z,84.00
2019-03-21T00:04:13.184Z,83.99
2019-03-21T00:06:44.201Z,84.00
2019-03-21T00:09:17.765Z,84.03
2019-03-21T00:12:09.556Z,84.01
2019-03-21T00:15:14.585Z,84.03
2019-03-21T00:17:50.632Z,84.06
2019-03-21T00:20:21.569Z,84.05
2019-03-21T00:22:52.514Z,84.00
2019-03-21T00:25:24.831Z,84.00
2019-03-21T00:27:55.821Z,84.01
2019-03-21T00:30:26.972Z,84.08
2019-03-21T00:32:58.066Z,84.05
2019-03-21T00:35:29.098Z,84.05
2019-03-21T00:38:00.098Z,84.02
2019-03-21T00:40:35.028Z,83.99
2019-03-21T00:43:09.477Z,83.98
2019-03-21T00:45:40.405Z,84.01
2019-03-21T00:48:14.055Z,84.01
2019-03-21T00:50:45.097Z,84.00
2019-03-21T00:53:16.044Z,84.04
2019-03-21T00:55:48.045Z,84.03
2019-03-21T00:58:18.980Z,84.01
2019-03-21T01:00:53.148Z,83.98
2019-03-21T01:03:24.140Z,83.96
2019-03-21T01:05:55.133Z,84.00
2019-03-21T01:08:25.988Z,84.11
2019-03-21T01:10:56.975Z,84.19
2019-03-21T01:13:31.426Z,84.21
2019-03-21T01:16:02.440Z,84.21
2019-03-21T01:18:33.495Z,84.24
2019-03-21T01:21:04.366Z,84.23
2019-03-21T01:23:35.411Z,84.25
2019-03-21T01:26:07.996Z,84.24
2019-03-21T01:28:39.257Z,84.26
2019-03-21T01:31:10.498Z,84.26
2019-03-21T01:33:42.003Z,84.24
2019-03-21T01:36:12.986Z,84.23
2019-03-21T01:38:44.119Z,84.24
2019-03-21T01:41:15.360Z,84.24
2019-03-21T01:43:46.412Z,84.24
2019-03-21T01:46:17.862Z,84.29
2019-03-21T01:48:48.969Z,84.38
2019-03-21T01:51:19.952Z,84.35
2019-03-21T01:53:50.984Z,84.32
2019-03-21T01:56:22.015Z,84.29
2019-03-21T01:58:53.368Z,84.14
2019-03-21T02:01:24.491Z,84.29
2019-03-21T02:03:55.456Z,84.39
2019-03-21T02:06:27.257Z,84.45
2019-03-21T02:08:58.470Z,84.44
2019-03-21T02:11:29.539Z,84.42
2019-03-21T02:14:00.561Z,84.44
2019-03-21T02:16:31.671Z,84.41
2019-03-21T02:19:02.729Z,84.39
2019-03-21T02:21:34.025Z,84.33
2019-03-21T02:24:05.881Z,84.06
2019-03-21T02:26:37.180Z,84.10
2019-03-21T02:29:08.341Z,84.16
2019-03-21T02:31:39.561Z,84.12
2019-03-21T02:34:11.035Z,84.06
2019-03-21T02:36:42.518Z,84.00
2019-03-21T02:39:13.877Z,83.95
2019-03-21T02:41:44.931Z,83.95
2019-03-21T02:44:15.998Z,83.89
2019-03-21T02:46:47.021Z,83.86
2019-03-21T02:49:18.027Z,83.86
2019-03-21T02:51:49.212Z,83.88
2019-03-21T02:54:20.447Z,83.86
2019-03-21T02:56:51.994Z,83.85
2019-03-21T02:59:25.488Z,83.86
2019-03-21T03:01:56.812Z,83.85
2019-03-21T03:04:27.981Z,83.84
2019-03-21T03:06:59.894Z,83.84
2019-03-21T03:09:30.993Z,83.81
2019-03-21T03:12:02.106Z,83.79
2019-03-21T03:14:32.974Z,83.78
2019-03-21T03:17:03.901Z,83.75
2019-03-21T03:19:34.912Z,83.71
2019-03-21T03:22:05.973Z,83.67
2019-03-21T03:24:38.458Z,83.66
2019-03-21T03:27:09.346Z,83.67
2019-03-21T03:29:40.323Z,83.66
2019-03-21T03:32:11.372Z,83.60
2019-03-21T03:34:42.335Z,83.56
2019-03-21T03:37:13.306Z,83.54
2019-03-21T03:39:44.168Z,83.54
2019-03-21T03:42:15.088Z,83.56
2019-03-21T03:44:45.974Z,83.54
2019-03-21T03:47:16.908Z,83.47
2019-03-21T03:49:47.783Z,83.44
2019-03-21T03:52:18.715Z,83.40
2019-03-21T03:54:49.669Z,83.36
2019-03-21T03:57:20.672Z,83.36
2019-03-21T03:59:51.680Z,83.39
2019-03-21T04:02:22.701Z,83.37
2019-03-21T04:04:53.622Z,83.33
2019-03-21T04:07:25.043Z,83.31
2019-03-21T04:09:56.015Z,83.27
2019-03-21T04:12:26.969Z,83.25
2019-03-21T04:14:57.995Z,83.23
2019-03-21T04:17:29.037Z,83.23
2019-03-21T04:19:59.893Z,83.19
2019-03-21T04:22:30.825Z,83.16
2019-03-21T04:25:01.959Z,83.11
2019-03-21T04:27:33.027Z,83.10
2019-03-21T04:30:04.081Z,83.03
2019-03-21T04:32:35.000Z,82.97
2019-03-21T04:35:06.600Z,82.94
2019-03-21T04:37:37.487Z,82.90
2019-03-21T04:40:09.877Z,82.90
2019-03-21T04:42:40.864Z,82.88
2019-03-21T04:45:15.994Z,82.88
2019-03-21T04:47:46.947Z,82.88
2019-03-21T04:50:21.651Z,82.86
2019-03-21T04:52:52.633Z,82.82
2019-03-21T04:55:23.572Z,82.76
2019-03-21T04:57:54.646Z,82.68
2019-03-21T05:00:28.665Z,82.67
2019-03-21T05:03:01.424Z,82.69
2019-03-21T05:05:32.323Z,82.70
2019-03-21T05:08:03.281Z,82.69
2019-03-21T05:10:34.256Z,82.78
2019-03-21T05:13:05.270Z,82.97
2019-03-21T05:15:38.794Z,83.21
2019-03-21T05:18:17.189Z,83.42
2019-03-21T05:20:48.191Z,83.62
2019-03-21T05:23:19.136Z,83.72
2019-03-21T05:25:50.081Z,83.83
2019-03-21T05:28:20.948Z,83.97
2019-03-21T05:30:56.606Z,84.01
2019-03-21T05:33:27.694Z,84.14
2019-03-21T05:35:58.622Z,84.17
2019-03-21T05:38:30.673Z,84.29
2019-03-21T05:41:01.719Z,84.39
2019-03-21T05:43:58.975Z,84.43
2019-03-21T05:46:30.204Z,84.39
2019-03-21T05:49:01.185Z,84.29
2019-03-21T05:52:00.108Z,84.17
2019-03-21T05:54:31.101Z,84.07
2019-03-21T05:57:02.157Z,84.09
2019-03-21T05:59:33.072Z,84.01
2019-03-21T06:02:04.201Z,84.02
2019-03-21T06:04:35.198Z,84.00
2019-03-21T06:07:43.544Z,84.01
2019-03-21T06:10:16.330Z,83.99
2019-03-21T06:12:47.867Z,84.01
2019-03-21T06:15:25.834Z,83.99
2019-03-21T06:18:34.452Z,84.01
2019-03-21T06:21:24.203Z,84.12
2019-03-21T06:25:08.426Z,84.31
2019-03-21T06:27:39.452Z,84.38
2019-03-21T06:30:12.267Z,84.42
2019-03-21T06:32:43.349Z,84.43
2019-03-21T06:35:24.350Z,84.43
2019-03-21T06:37:55.873Z,84.49
2019-03-21T06:40:27.176Z,84.41
2019-03-21T06:42:58.632Z,84.28
2019-03-21T06:45:30.076Z,84.07
2019-03-21T06:48:01.541Z,83.89
2019-03-21T06:50:33.065Z,83.74
2019-03-21T06:53:04.373Z,83.58
2019-03-21T06:55:35.889Z,83.48
2019-03-21T06:58:07.963Z,83.33
2019-03-21T07:00:39.319Z,83.16
2019-03-21T07:03:10.750Z,83.07
2019-03-21T07:05:41.929Z,82.92
2019-03-21T07:08:13.321Z,82.74
2019-03-21T07:10:44.408Z,82.58
2019-03-21T07:13:16.150Z,82.46
2019-03-21T07:15:47.494Z,82.45
2019-03-21T07:18:18.448Z,82.23
2019-03-21T07:20:49.506Z,82.02
2019-03-21T07:23:20.638Z,81.91
2019-03-21T07:25:51.786Z,81.80
2019-03-21T07:28:22.832Z,81.65
2019-03-21T07:30:53.926Z,81.52
2019-03-21T07:33:24.878Z,81.34
2019-03-21T07:35:55.916Z,81.18
2019-03-21T07:38:27.128Z,81.02
2019-03-21T07:40:58.167Z,80.91
2019-03-21T07:43:29.156Z,80.73
2019-03-21T07:46:02.615Z,80.64
2019-03-21T07:48:33.577Z,80.50
2019-03-21T07:51:06.890Z,80.29
2019-03-21T07:53:37.851Z,80.08
2019-03-21T07:56:08.933Z,79.87
2019-03-21T07:58:39.849Z,79.75
2019-03-21T08:01:10.935Z,79.58
2019-03-21T08:03:42.006Z,79.36
2019-03-21T08:06:13.202Z,79.14
2019-03-21T08:08:44.100Z,78.91
2019-03-21T08:11:15.032Z,78.84
2019-03-21T08:13:46.342Z,78.81
2019-03-21T08:16:20.155Z,78.64
2019-03-21T08:18:51.313Z,78.51
2019-03-21T08:21:22.247Z,78.44
2019-03-21T08:23:53.164Z,78.26
2019-03-21T08:26:24.156Z,78.33
2019-03-21T08:28:54.979Z,78.15
2019-03-21T08:31:25.909Z,78.12
2019-03-21T08:33:56.962Z,78.06
2019-03-21T08:36:28.047Z,78.00
2019-03-21T08:38:59.060Z,77.79
2019-03-21T08:41:30.158Z,77.67
2019-03-21T08:44:01.244Z,77.44
2019-03-21T08:46:32.189Z,77.19
2019-03-21T08:49:03.251Z,77.00
2019-03-21T08:51:34.301Z,76.79
2019-03-21T08:54:05.367Z,76.41
2019-03-21T08:56:36.451Z,76.26
2019-03-21T08:59:07.741Z,76.31
2019-03-21T09:01:38.962Z,76.11
2019-03-21T09:04:10.016Z,76.14
2019-03-21T09:06:41.097Z,75.98
2019-03-21T09:09:12.498Z,75.84
2019-03-21T09:11:43.954Z,75.83
2019-03-21T09:14:15.451Z,75.80
2019-03-21T09:16:46.634Z,75.64
2019-03-21T09:19:17.571Z,75.63
2019-03-21T09:21:48.482Z,75.70
2019-03-21T09:24:24.104Z,75.64
2019-03-21T09:26:55.170Z,75.40
2019-03-21T09:29:26.136Z,75.45
2019-03-21T09:31:57.179Z,75.40
2019-03-21T09:34:28.234Z,75.28
2019-03-21T09:36:59.292Z,75.22
2019-03-21T09:39:30.300Z,74.96
2019-03-21T09:42:01.598Z,74.93
2019-03-21T09:44:32.673Z,74.97
2019-03-21T09:47:03.779Z,74.98
2019-03-21T09:49:34.879Z,75.02
2019-03-21T09:52:05.962Z,74.66
2019-03-21T09:54:37.016Z,74.59
2019-03-21T09:57:08.064Z,74.41
2019-03-21T09:59:38.930Z,74.03
2019-03-21T10:02:09.945Z,73.97
2019-03-21T10:04:40.996Z,73.86
2019-03-21T10:07:11.939Z,73.72
2019-03-21T10:09:45.182Z,73.71
2019-03-21T10:12:16.871Z,73.65
2019-03-21T10:14:47.999Z,73.36
2019-03-21T10:17:19.079Z,73.36
2019-03-21T10:19:50.076Z,73.35
2019-03-21T10:22:21.063Z,73.26
2019-03-21T10:24:52.039Z,73.18
2019-03-21T10:27:23.043Z,73.11
2019-03-21T10:29:54.041Z,73.00
2019-03-21T10:32:25.052Z,73.01
2019-03-21T10:34:55.981Z,72.99
2019-03-21T10:37:26.912Z,72.92
2019-03-21T10:39:57.857Z,72.84
2019-03-21T10:42:28.884Z,72.80
2019-03-21T10:45:00.376Z,72.60
2019-03-21T10:47:31.495Z,72.48
2019-03-21T10:50:02.392Z,72.33
2019-03-21T10:52:33.477Z,72.27
2019-03-21T10:55:04.607Z,72.29
2019-03-21T10:57:35.586Z,72.12
2019-03-21T11:00:08.524Z,71.94
2019-03-21T11:02:39.574Z,71.80
2019-03-21T11:05:11.045Z,71.56
2019-03-21T11:07:42.075Z,71.54
2019-03-21T11:10:13.276Z,71.38
2019-03-21T11:12:44.475Z,70.99
2019-03-21T11:15:15.942Z,70.86
2019-03-21T11:17:47.047Z,70.85
2019-03-21T11:20:32.166Z,70.79
2019-03-21T11:23:03.396Z,70.76
2019-03-21T11:25:34.678Z,70.85
2019-03-21T11:28:06.915Z,70.82
2019-03-21T11:30:43.346Z,70.68
2019-03-21T11:33:14.399Z,70.61
2019-03-21T11:35:45.479Z,70.46
2019-03-21T11:38:16.624Z,70.52
2019-03-21T11:40:48.533Z,70.69
2019-03-21T11:43:20.543Z,70.68
2019-03-21T11:45:51.637Z,70.62
2019-03-21T11:48:22.636Z,70.36
2019-03-21T11:50:53.608Z,69.99
2019-03-21T11:53:24.576Z,69.97
2019-03-21T11:55:55.687Z,69.79
2019-03-21T11:58:26.772Z,69.60
2019-03-21T12:00:57.842Z,69.38
2019-03-21T12:03:29.033Z,69.07
2019-03-21T12:06:00.057Z,68.91
2019-03-21T12:08:32.347Z,68.76
2019-03-21T12:11:03.522Z,68.51
2019-03-21T12:13:34.383Z,68.35
2019-03-21T12:16:05.491Z,68.23
2019-03-21T12:18:36.589Z,68.03
2019-03-21T12:21:07.629Z,67.76
2019-03-21T12:23:38.599Z,67.50
2019-03-21T12:26:09.491Z,67.25
2019-03-21T12:28:40.520Z,67.18
2019-03-21T12:31:11.618Z,67.12
2019-03-21T12:33:42.801Z,67.04
2019-03-21T12:36:13.879Z,67.31
2019-03-21T12:38:44.906Z,67.43
2019-03-21T12:41:15.997Z,67.63
2019-03-21T12:43:47.162Z,67.56
2019-03-21T12:46:18.184Z,67.51
2019-03-21T12:48:52.269Z,67.25
2019-03-21T12:51:24.677Z,67.20
2019-03-21T12:53:55.770Z,67.14
2019-03-21T12:56:26.753Z,67.16
2019-03-21T12:59:00.428Z,67.09
2019-03-21T13:01:31.323Z,67.02
2019-03-21T13:04:02.380Z,67.09
2019-03-21T13:06:33.525Z,67.18
2019-03-21T13:09:06.337Z,67.24
2019-03-21T13:11:37.364Z,67.27
2019-03-21T13:14:08.484Z,67.30
2019-03-21T13:16:39.572Z,67.46
2019-03-21T13:19:10.600Z,67.62
2019-03-21T13:21:41.541Z,67.69
2019-03-21T13:24:12.524Z,67.96
2019-03-21T13:26:43.579Z,67.92
2019-03-21T13:29:14.583Z,68.00
2019-03-21T13:31:45.632Z,68.13
2019-03-21T13:34:16.563Z,68.42
2019-03-21T13:36:47.490Z,68.69
2019-03-21T13:39:18.419Z,68.81
2019-03-21T13:41:49.365Z,69.17
2019-03-21T13:44:20.333Z,69.45
2019-03-21T13:46:51.407Z,69.55
2019-03-21T13:49:22.627Z,69.71
2019-03-21T13:51:53.736Z,69.90
2019-03-21T13:54:24.699Z,70.06
2019-03-21T13:56:55.704Z,70.20
2019-03-21T13:59:26.678Z,70.35
2019-03-21T14:01:57.642Z,70.47
2019-03-21T14:04:28.560Z,70.66
2019-03-21T14:06:59.584Z,71.09
2019-03-21T14:09:30.584Z,71.37
2019-03-21T14:12:01.649Z,71.59
2019-03-21T14:14:32.685Z,71.85
2019-03-21T14:17:03.767Z,72.01
2019-03-21T14:19:34.879Z,72.07
2019-03-21T14:22:05.913Z,72.24
2019-03-21T14:24:36.958Z,72.35
2019-03-21T14:27:08.115Z,72.40
2019-03-21T14:29:39.266Z,72.35
2019-03-21T14:32:10.273Z,72.49
2019-03-21T14:34:41.223Z,72.52
2019-03-21T14:37:12.222Z,72.63
2019-03-21T14:39:43.264Z,72.73
2019-03-21T14:42:14.293Z,72.89
2019-03-21T14:44:45.230Z,73.12
2019-03-21T14:47:16.113Z,73.25
2019-03-21T14:49:47.196Z,73.36
2019-03-21T14:52:18.133Z,73.54
2019-03-21T14:54:49.195Z,73.69
2019-03-21T14:57:20.141Z,73.70
2019-03-21T14:59:51.229Z,73.68
2019-03-21T15:02:22.260Z,73.75
2019-03-21T15:04:53.237Z,73.90
2019-03-21T15:07:24.274Z,73.98
2019-03-21T15:09:55.354Z,73.97
2019-03-21T15:12:26.534Z,73.99
2019-03-21T15:14:57.705Z,74.10
2019-03-21T15:17:29.019Z,74.28
2019-03-21T15:20:00.181Z,74.42
2019-03-21T15:22:31.574Z,74.53
2019-03-21T15:25:02.676Z,74.66
2019-03-21T15:27:33.772Z,74.69
2019-03-21T15:30:05.957Z,74.71
2019-03-21T15:32:37.238Z,74.76
2019-03-21T15:35:10.611Z,74.83
2019-03-21T15:37:41.813Z,74.87
2019-03-21T15:40:13.606Z,74.96
2019-03-21T15:42:44.816Z,75.06
2019-03-21T15:45:22.644Z,75.22
2019-03-21T15:47:49.697Z,75.32
2019-03-21T15:50:32.702Z,75.45
2019-03-21T15:53:03.770Z,75.56
2019-03-21T15:55:35.103Z,75.65
2019-03-21T15:58:07.396Z,75.83
2019-03-21T16:00:42.590Z,75.90
2019-03-21T16:03:14.280Z,76.01
2019-03-21T16:05:45.362Z,76.07
2019-03-21T16:08:16.537Z,76.12
2019-03-21T16:10:47.387Z,76.22
2019-03-21T16:13:18.290Z,76.23
2019-03-21T16:15:49.218Z,76.11
2019-03-21T16:18:20.401Z,76.05
2019-03-21T16:20:51.403Z,76.03
2019-03-21T16:23:22.314Z,75.97
2019-03-21T16:25:53.390Z,75.94
2019-03-21T16:28:24.413Z,75.99
2019-03-21T16:30:55.272Z,76.04
2019-03-21T16:33:26.379Z,76.10
2019-03-21T16:35:57.402Z,76.09
2019-03-21T16:38:28.486Z,76.07
2019-03-21T16:40:59.489Z,76.07
2019-03-21T16:43:30.618Z,76.07
2019-03-21T16:46:01.647Z,76.16
2019-03-21T16:48:33.781Z,76.23
2019-03-21T16:51:05.195Z,76.29
2019-03-21T16:53:36.575Z,76.34
2019-03-21T16:56:08.064Z,76.38
2019-03-21T16:58:39.461Z,76.23
2019-03-21T17:01:11.083Z,76.39
2019-03-21T17:03:42.466Z,76.47
2019-03-21T17:06:13.630Z,76.50
2019-03-21T17:08:44.772Z,76.53
2019-03-21T17:11:15.796Z,76.57
2019-03-21T17:13:46.839Z,76.66
2019-03-21T17:16:17.886Z,76.76
2019-03-21T17:18:48.929Z,76.81
2019-03-21T17:21:20.062Z,76.83
2019-03-21T17:23:51.051Z,76.71
2019-03-21T17:26:22.122Z,76.82
2019-03-21T17:28:53.185Z,76.89
2019-03-21T17:31:24.196Z,76.95
2019-03-21T17:33:55.319Z,76.98
2019-03-21T17:36:26.461Z,76.98
2019-03-21T17:38:57.962Z,76.96
2019-03-21T17:41:29.212Z,76.93
2019-03-21T17:44:00.594Z,76.91
2019-03-21T17:46:32.166Z,76.92
2019-03-21T17:49:03.755Z,76.92
2019-03-21T17:51:35.102Z,76.95
2019-03-21T17:54:06.599Z,77.01
2019-03-21T17:59:15.822Z,77.03
2019-03-21T18:01:47.340Z,77.09
2019-03-21T18:04:18.618Z,77.11
2019-03-21T18:06:50.053Z,77.13
2019-03-21T18:09:21.837Z,77.14
2019-03-21T18:11:53.268Z,77.23
2019-03-21T18:14:24.732Z,77.28
2019-03-21T18:16:55.787Z,77.34
2019-03-21T18:19:26.816Z,77.38
2019-03-21T18:21:57.834Z,77.40
2019-03-21T18:24:28.937Z,77.47
2019-03-21T18:26:59.983Z,77.56
2019-03-21T18:29:31.050Z,77.62
2019-03-21T18:32:02.138Z,77.65
2019-03-21T18:34:33.302Z,77.67
2019-03-21T18:37:04.353Z,77.71
2019-03-21T18:39:35.407Z,77.75
2019-03-21T18:42:07.801Z,77.77
2019-03-21T18:44:38.747Z,77.78
2019-03-21T18:47:10.027Z,77.79
2019-03-21T18:49:44.045Z,77.78
2019-03-21T18:52:15.453Z,77.80
2019-03-21T18:54:46.775Z,77.77
2019-03-21T18:57:18.024Z,77.76
2019-03-21T18:59:49.299Z,77.76
2019-03-21T19:02:20.666Z,77.75
2019-03-21T19:04:52.415Z,77.71
2019-03-21T19:09:57.005Z,77.71
2019-03-21T19:12:28.385Z,77.78
2019-03-21T19:14:59.910Z,77.84
2019-03-21T19:17:32.032Z,77.86
2019-03-21T19:20:03.712Z,77.87
2019-03-21T19:22:35.015Z,77.90
2019-03-21T19:25:17.887Z,77.92
2019-03-21T19:27:40.406Z,77.95
2019-03-21T19:30:12.724Z,77.95
2019-03-21T19:32:44.081Z,77.97
2019-03-21T19:35:16.039Z,77.95
2019-03-21T19:37:47.510Z,77.95
2019-03-21T19:40:19.065Z,78.00
2019-03-21T19:42:50.477Z,78.00
2019-03-21T19:45:27.154Z,77.95
2019-03-21T19:47:58.887Z,77.93
2019-03-21T19:50:30.194Z,77.89
2019-03-21T19:53:01.524Z,77.87
2019-03-21T19:55:32.871Z,77.90
2019-03-21T19:58:04.744Z,77.90
2019-03-21T20:00:36.297Z,77.87
2019-03-21T20:03:08.121Z,77.87
2019-03-21T20:05:39.508Z,77.85
2019-03-21T20:08:10.903Z,77.84
2019-03-21T20:10:43.568Z,77.78
2019-03-21T20:13:15.495Z,77.76
2019-03-21T20:15:47.106Z,77.75
2019-03-21T20:18:18.317Z,77.75
2019-03-21T20:20:49.705Z,77.79
2019-03-21T20:23:21.288Z,77.77
2019-03-21T20:25:52.881Z,77.77
2019-03-21T20:28:26.040Z,77.77
2019-03-21T20:30:57.622Z,77.76
2019-03-21T20:33:29.020Z,77.74
2019-03-21T20:36:00.452Z,77.77
2019-03-21T20:38:31.949Z,77.79
2019-03-21T20:41:03.674Z,77.76
2019-03-21T20:43:35.023Z,77.77
2019-03-21T20:46:06.555Z,77.80
2019-03-21T20:48:34.994Z,77.85
2019-03-21T20:51:09.586Z,77.88
2019-03-21T20:53:40.960Z,77.88
2019-03-21T20:56:12.200Z,77.94
2019-03-21T20:58:43.517Z,77.96
2019-03-21T21:01:14.917Z,77.97
2019-03-21T21:03:46.189Z,77.98
2019-03-21T21:06:17.427Z,78.02
2019-03-21T21:11:22.123Z,77.92
2019-03-21T21:13:53.450Z,78.00
2019-03-21T21:16:24.734Z,78.09
2019-03-21T21:18:56.073Z,78.11
2019-03-21T21:21:27.471Z,78.13
2019-03-21T21:23:58.757Z,78.15
2019-03-21T21:26:30.023Z,78.11
2019-03-21T21:29:01.444Z,78.08
2019-03-21T21:31:33.289Z,78.03
2019-03-21T21:34:05.933Z,77.94
2019-03-21T21:36:37.308Z,77.88
2019-03-21T21:39:24.117Z,77.74
2019-03-21T21:41:55.568Z,77.78
2019-03-21T21:44:27.052Z,77.81
2019-03-21T21:46:58.410Z,77.80
2019-03-21T21:49:29.840Z,77.77
2019-03-21T21:52:01.298Z,77.77
2019-03-21T21:54:32.718Z,77.78
2019-03-21T21:57:04.115Z,77.82
2019-03-21T21:59:35.509Z,77.83
2019-03-21T22:02:08.105Z,77.82
2019-03-21T22:04:39.398Z,77.77
2019-03-21T22:07:11.132Z,77.68
2019-03-21T22:09:42.598Z,77.71
2019-03-21T22:12:14.078Z,77.69
2019-03-21T22:14:47.555Z,77.71
2019-03-21T22:17:18.879Z,77.70
2019-03-21T22:19:50.201Z,77.67
2019-03-21T22:22:21.941Z,77.66
2019-03-21T22:24:53.424Z,77.63
2019-03-21T22:27:24.742Z,77.61
2019-03-21T22:32:19.758Z,77.59
2019-03-21T22:34:50.793Z,77.57
2019-03-21T22:37:21.758Z,77.57
2019-03-21T22:39:52.609Z,77.60
2019-03-21T22:42:23.471Z,77.59
2019-03-21T22:44:54.345Z,77.58
2019-03-21T22:47:25.647Z,77.61
2019-03-21T22:49:56.592Z,77.65
2019-03-21T22:52:27.526Z,77.70
2019-03-21T22:54:58.472Z,77.77
2019-03-21T22:57:29.329Z,77.78
2019-03-21T23:00:00.446Z,77.80
2019-03-21T23:02:31.504Z,77.83
2019-03-21T23:05:02.449Z,77.86
2019-03-21T23:07:33.333Z,77.87
2019-03-21T23:10:04.671Z,77.84
2019-03-21T23:12:35.728Z,77.79
2019-03-21T23:15:08.358Z,77.76
2019-03-21T23:17:39.400Z,77.73
2019-03-21T23:20:11.191Z,77.72
2019-03-21T23:22:42.212Z,77.73
2019-03-21T23:25:16.569Z,77.73
2019-03-21T23:27:46.994Z,77.77
2019-03-21T23:30:18.178Z,77.76
2019-03-21T23:32:49.262Z,77.75
2019-03-21T23:35:20.304Z,77.73
2019-03-21T23:37:51.189Z,77.71
2019-03-21T23:40:22.246Z,77.71
2019-03-21T23:42:53.367Z,77.72
2019-03-21T23:45:24.497Z,77.75
2019-03-21T23:47:56.573Z,77.80
2019-03-21T23:50:27.614Z,77.79
2019-03-21T23:52:58.654Z,77.79
2019-03-21T23:55:29.569Z,77.83
2019-03-21T23:58:00.431Z,77.90
